Hauptseite
METAR-TAF:

METAR-TAF

Flughäfen :

Flughafen Sønderborg

Sønderborg, Dänemark

Breite: 54-58N, Länge: 009-47E, Höhe: 7 m

Beobachtung

Neuester Wetterbericht von vor 32 Minuten, um 01:50 UTC
Wind 11 kt aus Süd/Südost
Temperatur 5°C
Luftfeuchtigkeit 87%
Luftdruck 1004 hPa
Sichtweite 10 km oder mehr

METAR: EKSB 010150Z AUTO 15011KT 9999 BKN150/// 05/03 Q1004

Zeit: 03:22 (02:22 UTC)

Prognose

Neuester Wetterbericht von vor 8 Stunden und 40 Minuten, um 17:42 UTC
Gültige Prognose vom 29 um 18 UTC bis 29 um 23 UTC
Wind 5 kt aus Südost
Sichtweite 10 km oder mehr
Durchbrochene Bewölkung in der Höhe von 2500 ft

TAF: EKSB 291742Z 2918/2923 14005KT 9999 BKN025

Wetterbeobachtungen und Prognosen von mehr als 4000 Flughäfen (METAR und TAF Bericht).

Die verfügbaren Stationen werden durch gelbe und rote Markierungen auf der Karte dargestellt.

Führen Sie die Maus auf sie, um den Namen der Station zu sehen.

Darauf klicken, um die Beobachtung von Wetterbeobachtungen und Prognosen zu sehen.

Um die Karte zu ändern : klicken Sie auf den grünen Tasten mit einem schwarzen Kreuz Zum Vergrößern, auf den grünen Button mit einem Gedankenstrich zu verkleinern, oder auf die grünen Pfeile für benachbarte Karten.


METAR-TAF: